TAF SBBE
SBBE 270345Z 2706/2806 10005KT CAVOK TN24/2709Z TX32/2716Z BECMG 2715/2717 35010KT BKN030 FEW035TCU TEMPO 2718/2721 4000 TSRA BKN015 FEW025CB BECMG 2721/2724 05005KT CAVOK BECMG 2802/2804 11005KT RMK PHQ=
METAR SBBE
SBBE 270700Z 08004KT CAVOK 24/23 Q1009=
SBBE 270600Z 07003KT CAVOK 25/23 Q1009=
SBBE 270500Z 06004KT CAVOK 25/23 Q1009=
SBBE 270400Z 05006KT CAVOK 25/24 Q1009=
SBBE 270300Z 06005KT CAVOK 25/23 Q1010=
WC SBBE
WS SBBE
WV SBBE